Time;durP1;ratioP1;P1;durP2;ratioP2;P2;SDS_P1;SDS_P2;PMS_P1;PMS_P2;Temp;Humidity;BMP_temperature;BMP_pressure;BME280_temperature;BME280_humidity;BME280_pressure;Samples;Min_cycle;Max_cycle;Signal;HPM_P1;HPM_P2
2022/01/29 04:00:41;;;;;;;2.37;1.10;;;4.70;76.10;;;;;;6069513;23;20402;-76
2022/01/29 04:03:09;;;;;;;2.40;1.00;;;4.70;75.40;;;;;;4994870;28;20488;-75
2022/01/29 04:05:35;;;;;;;2.40;1.10;;;4.60;75.20;;;;;;4996084;28;20592;-75
2022/01/29 04:08:06;;;;;;;3.93;1.33;;;4.40;76.00;;;;;;4994740;28;20849;-77
2022/01/29 04:10:32;;;;;;;2.60;1.17;;;4.50;75.90;;;;;;4994953;28;20438;-76
2022/01/29 04:12:59;;;;;;;2.43;1.27;;;4.40;75.90;;;;;;4994917;28;20449;-76
2022/01/29 04:15:26;;;;;;;2.53;1.10;;;4.30;76.30;;;;;;4997130;28;20444;-76
2022/01/29 04:17:54;;;;;;;2.53;1.30;;;4.30;76.70;;;;;;4994825;28;20488;-76
2022/01/29 04:20:21;;;;;;;2.87;1.00;;;4.50;76.30;;;;;;4994939;28;20451;-76
2022/01/29 04:22:48;;;;;;;2.77;1.03;;;4.30;76.10;;;;;;4994405;28;20476;-76
2022/01/29 04:25:15;;;;;;;2.80;1.10;;;4.30;77.10;;;;;;4994735;28;20457;-76
2022/01/29 04:27:44;;;;;;;2.27;1.07;;;4.40;76.40;;;;;;4994700;28;20453;-76
2022/01/29 04:30:18;;;;;;;2.47;1.10;;;4.00;76.90;;;;;;4994618;28;20459;-76
2022/01/29 04:32:58;;;;;;;2.73;1.10;;;4.00;77.30;;;;;;4994281;28;20933;-76
2022/01/29 04:35:27;;;;;;;2.63;0.97;;;3.70;78.30;;;;;;4994277;28;20920;-76
2022/01/29 04:37:54;;;;;;;2.17;0.90;;;3.80;78.30;;;;;;4993853;28;20843;-76
2022/01/29 04:40:21;;;;;;;2.50;1.17;;;3.90;78.40;;;;;;4994529;28;20496;-76
2022/01/29 04:42:47;;;;;;;3.47;1.30;;;4.00;77.50;;;;;;4994338;28;20481;-76
2022/01/29 04:45:15;;;;;;;2.43;1.07;;;4.00;77.90;;;;;;4994108;28;20845;-76
2022/01/29 04:47:41;;;;;;;2.50;1.20;;;4.10;77.50;;;;;;4994343;28;20453;-76
2022/01/29 04:50:08;;;;;;;2.40;1.20;;;4.10;77.50;;;;;;4994330;28;20503;-76
2022/01/29 04:52:36;;;;;;;2.40;1.00;;;4.10;77.50;;;;;;4994011;28;20983;-76
2022/01/29 04:55:04;;;;;;;2.67;1.20;;;4.00;77.30;;;;;;4993983;28;21006;-76
2022/01/29 04:57:31;;;;;;;2.70;1.30;;;3.90;77.60;;;;;;4994254;28;20511;-76
2022/01/29 04:59:59;;;;;;;2.80;1.20;;;3.70;78.30;;;;;;4993909;28;20804;-76
2022/01/29 05:02:25;;;;;;;2.30;1.00;;;3.60;78.50;;;;;;4993903;28;20588;-76
2022/01/29 05:04:52;;;;;;;2.30;1.10;;;3.80;79.00;;;;;;4994112;28;20495;-76
2022/01/29 05:07:19;;;;;;;2.77;1.10;;;3.90;78.60;;;;;;4994107;28;20449;-76
2022/01/29 05:09:46;;;;;;;2.37;1.07;;;3.90;78.20;;;;;;4994195;28;20508;-76
2022/01/29 05:12:19;;;;;;;2.10;0.90;;;4.10;77.70;;;;;;4994049;28;20811;-76
2022/01/29 05:15:02;;;;;;;2.20;0.90;;;4.30;77.60;;;;;;4994090;28;20437;-76
2022/01/29 05:28:23;;;;;;;2.73;1.37;;;5.00;74.90;;;;;;4994167;28;20460;-76
2022/01/29 05:30:50;;;;;;;3.03;1.30;;;5.00;74.10;;;;;;4993983;28;20473;-76
2022/01/29 05:33:17;;;;;;;2.20;1.00;;;4.80;74.30;;;;;;4993967;28;20511;-76
2022/01/29 05:35:43;;;;;;;2.60;1.00;;;4.70;74.90;;;;;;4993911;28;20500;-76
2022/01/29 05:38:10;;;;;;;2.67;1.10;;;4.90;74.70;;;;;;4993913;28;20499;-76
2022/01/29 05:40:37;;;;;;;2.40;1.40;;;4.90;74.00;;;;;;4993838;28;20453;-76
2022/01/29 05:43:05;;;;;;;4.37;1.30;;;4.90;74.60;;;;;;4993746;28;20485;-76
2022/01/29 05:45:31;;;;;;;2.60;1.37;;;5.10;74.40;;;;;;4993838;28;20449;-76
2022/01/29 05:47:58;;;;;;;2.40;1.00;;;5.20;74.10;;;;;;4993758;28;20449;-76
2022/01/29 05:50:24;;;;;;;2.20;0.90;;;5.30;73.80;;;;;;4996548;28;20479;-77
2022/01/29 05:52:51;;;;;;;2.10;0.90;;;5.50;73.20;;;;;;4997945;28;20449;-76
2022/01/29 05:55:18;;;;;;;2.40;1.00;;;5.50;73.10;;;;;;4997640;28;20503;-76
2022/01/29 05:57:44;;;;;;;2.50;1.10;;;5.60;72.90;;;;;;4997529;28;20448;-76
2022/01/29 06:00:14;;;;;;;2.80;1.23;;;5.70;72.30;;;;;;4997476;28;20453;-76
2022/01/29 06:02:40;;;;;;;2.13;0.87;;;5.70;71.70;;;;;;4997171;28;20497;-76
2022/01/29 06:05:08;;;;;;;2.20;1.00;;;5.60;72.00;;;;;;4997410;28;20452;-76
2022/01/29 06:07:34;;;;;;;2.50;1.10;;;5.70;72.10;;;;;;4997347;28;20449;-76
2022/01/29 06:10:01;;;;;;;2.20;0.80;;;5.60;72.30;;;;;;4997279;28;20448;-76
2022/01/29 06:12:28;;;;;;;2.30;0.90;;;5.60;72.10;;;;;;4996848;28;20891;-76
2022/01/29 06:14:54;;;;;;;3.00;1.00;;;5.60;72.30;;;;;;4997273;28;20453;-76
2022/01/29 06:17:22;;;;;;;2.60;1.30;;;5.60;72.40;;;;;;4996869;28;20940;-76
2022/01/29 06:19:49;;;;;;;2.30;0.80;;;5.50;71.80;;;;;;4997218;28;20507;-76
2022/01/29 06:22:16;;;;;;;2.93;0.97;;;5.40;72.50;;;;;;4997079;28;20485;-75
2022/01/29 06:24:42;;;;;;;2.60;1.10;;;5.40;72.50;;;;;;4997014;28;20457;-76
2022/01/29 06:27:09;;;;;;;2.20;0.90;;;5.30;72.40;;;;;;4997013;28;20440;-76
2022/01/29 06:29:36;;;;;;;2.40;1.07;;;5.30;72.90;;;;;;4996915;28;20453;-76
2022/01/29 06:32:03;;;;;;;2.80;1.00;;;5.40;73.00;;;;;;4996759;28;20476;-76
2022/01/29 06:34:31;;;;;;;2.60;1.00;;;5.50;72.90;;;;;;4996843;28;20496;-77
2022/01/29 06:36:58;;;;;;;2.77;1.00;;;5.50;72.90;;;;;;4996746;28;20507;-76
2022/01/29 06:39:24;;;;;;;2.20;0.90;;;5.50;72.60;;;;;;4996740;28;20495;-76
2022/01/29 06:41:51;;;;;;;2.83;0.90;;;5.60;72.50;;;;;;4996631;28;20472;-76
2022/01/29 06:44:17;;;;;;;2.40;1.00;;;5.70;72.30;;;;;;4996574;28;20535;-76
2022/01/29 06:46:44;;;;;;;2.30;1.00;;;5.70;72.10;;;;;;4996677;28;20450;-76
2022/01/29 06:49:11;;;;;;;2.60;1.10;;;5.70;72.00;;;;;;4996634;28;20445;-76
2022/01/29 06:51:39;;;;;;;2.43;0.80;;;5.80;71.90;;;;;;4996453;28;20469;-76
2022/01/29 06:54:05;;;;;;;2.10;0.83;;;5.80;71.60;;;;;;4996526;28;20866;-76
2022/01/29 06:56:32;;;;;;;2.30;1.00;;;5.80;71.50;;;;;;4996162;28;20936;-76
2022/01/29 06:58:59;;;;;;;2.27;1.00;;;5.90;71.50;;;;;;4996361;28;20453;-76
2022/01/29 07:01:25;;;;;;;2.20;0.90;;;5.90;71.60;;;;;;4995957;28;20520;-76
2022/01/29 07:03:52;;;;;;;3.00;1.20;;;5.90;71.60;;;;;;4996346;28;20918;-76
2022/01/29 07:06:19;;;;;;;2.20;0.90;;;6.00;71.60;;;;;;4996307;28;20858;-76
2022/01/29 07:08:47;;;;;;;3.30;1.07;;;6.00;71.50;;;;;;4995858;28;20876;-76
2022/01/29 07:11:14;;;;;;;2.70;1.20;;;6.00;71.30;;;;;;4996149;28;20465;-76
2022/01/29 07:13:40;;;;;;;2.30;1.00;;;6.00;71.30;;;;;;4996128;28;20862;-76
2022/01/29 07:16:07;;;;;;;2.30;1.17;;;6.00;71.10;;;;;;4995865;28;20960;-76
2022/01/29 07:18:34;;;;;;;2.27;1.07;;;6.00;71.30;;;;;;4995756;28;20949;-76
2022/01/29 07:21:00;;;;;;;2.37;1.00;;;6.00;71.30;;;;;;4995869;28;20457;-76
2022/01/29 07:23:27;;;;;;;2.50;0.90;;;6.00;71.10;;;;;;4995906;28;20481;-76
2022/01/29 07:25:55;;;;;;;2.30;1.10;;;6.00;71.10;;;;;;4995910;28;20489;-76
2022/01/29 07:28:22;;;;;;;3.03;1.10;;;6.00;71.20;;;;;;4995799;28;20453;-76
2022/01/29 07:30:49;;;;;;;2.10;0.97;;;6.00;71.30;;;;;;4995536;28;20461;-77
2022/01/29 07:33:15;;;;;;;2.30;1.20;;;6.00;71.30;;;;;;4995751;28;20449;-76
2022/01/29 07:35:42;;;;;;;2.50;1.30;;;6.00;71.30;;;;;;4995685;28;20484;-76
2022/01/29 07:38:09;;;;;;;2.20;1.03;;;5.60;71.60;;;;;;4995385;28;20508;-76
2022/01/29 07:40:36;;;;;;;2.13;0.90;;;5.50;72.70;;;;;;4995606;28;20449;-76
2022/01/29 07:43:04;;;;;;;2.27;1.10;;;5.50;72.90;;;;;;4995124;28;20931;-77
2022/01/29 07:45:31;;;;;;;2.40;1.20;;;5.50;73.20;;;;;;4995174;28;21018;-76
2022/01/29 07:47:58;;;;;;;2.20;0.90;;;5.50;73.10;;;;;;4995461;28;20449;-76
2022/01/29 07:50:24;;;;;;;2.33;1.00;;;5.30;73.20;;;;;;4995356;28;20461;-76
2022/01/29 07:52:51;;;;;;;2.30;1.10;;;5.00;74.20;;;;;;4995452;28;20531;-76
2022/01/29 07:55:18;;;;;;;2.30;0.97;;;4.90;74.90;;;;;;4995396;28;20449;-76
2022/01/29 07:57:44;;;;;;;2.80;1.17;;;4.70;75.40;;;;;;4995579;28;20456;-76
2022/01/29 08:00:13;;;;;;;2.20;0.93;;;4.60;76.00;;;;;;4995257;28;20508;-76
2022/01/29 08:02:40;;;;;;;2.93;1.10;;;4.80;75.50;;;;;;4994791;28;20535;-76
2022/01/29 08:05:08;;;;;;;2.43;1.00;;;4.80;75.40;;;;;;4994857;28;20485;-76
2022/01/29 08:07:34;;;;;;;2.57;1.20;;;5.00;75.10;;;;;;4995043;28;20457;-76
2022/01/29 08:10:01;;;;;;;2.60;1.07;;;5.20;74.60;;;;;;4995032;28;20464;-76
2022/01/29 08:12:28;;;;;;;2.57;1.10;;;5.00;74.20;;;;;;4994274;28;20469;-76
2022/01/29 08:14:54;;;;;;;2.37;1.13;;;5.10;74.60;;;;;;4994917;28;20458;-76
2022/01/29 08:17:22;;;;;;;2.60;1.23;;;5.00;74.70;;;;;;4994902;28;20866;-76
2022/01/29 08:19:49;;;;;;;2.30;1.20;;;5.00;74.00;;;;;;4994832;28;20445;-76
2022/01/29 08:22:17;;;;;;;2.83;1.20;;;4.80;74.20;;;;;;4995131;28;20480;-76
2022/01/29 08:24:43;;;;;;;2.30;1.13;;;4.80;74.60;;;;;;4994858;28;20555;-76
2022/01/29 08:27:10;;;;;;;2.33;1.10;;;4.70;74.70;;;;;;4994881;28;20449;-76
2022/01/29 08:29:37;;;;;;;2.20;0.90;;;4.70;75.00;;;;;;4994828;28;20858;-76
2022/01/29 08:32:05;;;;;;;2.40;1.20;;;4.80;75.40;;;;;;4994561;28;20480;-76
2022/01/29 08:34:33;;;;;;;2.30;1.03;;;4.90;74.20;;;;;;4994257;28;20929;-76
2022/01/29 08:37:02;;;;;;;2.47;1.37;;;4.90;73.70;;;;;;4994604;28;20460;-76
2022/01/29 08:39:28;;;;;;;2.50;1.30;;;4.90;73.80;;;;;;4994503;28;20452;-76
2022/01/29 08:41:55;;;;;;;2.83;1.47;;;4.80;74.90;;;;;;4994359;28;20876;-76
2022/01/29 08:44:22;;;;;;;2.40;1.10;;;4.70;74.50;;;;;;4994377;28;20481;-77
2022/01/29 08:46:49;;;;;;;2.60;1.57;;;4.70;75.00;;;;;;4994424;28;20511;-76
2022/01/29 08:49:16;;;;;;;2.70;1.40;;;4.60;74.40;;;;;;4994345;28;20448;-76
2022/01/29 08:51:44;;;;;;;3.20;1.67;;;4.60;74.90;;;;;;4994248;28;20468;-76
2022/01/29 08:54:10;;;;;;;3.17;1.77;;;4.70;75.60;;;;;;4994470;28;20449;-76
2022/01/29 08:56:37;;;;;;;2.43;1.37;;;4.40;74.90;;;;;;4994383;28;20449;-77
2022/01/29 08:59:04;;;;;;;2.60;1.40;;;4.40;75.30;;;;;;4994312;28;20453;-77
2022/01/29 09:01:31;;;;;;;3.40;1.70;;;4.30;75.60;;;;;;4994023;28;20484;-76
2022/01/29 09:03:59;;;;;;;2.50;1.40;;;4.40;76.40;;;;;;4994496;28;20543;-77
2022/01/29 09:06:25;;;;;;;2.80;1.60;;;4.40;75.60;;;;;;4995262;28;20504;-77
2022/01/29 09:08:53;;;;;;;2.50;1.50;;;4.60;76.00;;;;;;4994016;28;20949;-75
2022/01/29 09:11:20;;;;;;;3.20;1.57;;;4.70;75.50;;;;;;4994123;28;20524;-76
2022/01/29 09:13:47;;;;;;;2.50;1.40;;;4.70;74.70;;;;;;4994067;28;20447;-75
2022/01/29 09:16:14;;;;;;;2.80;1.60;;;4.70;74.50;;;;;;4994112;28;20449;-75
2022/01/29 09:18:41;;;;;;;3.23;1.50;;;4.60;75.30;;;;;;4993802;28;20933;-75
2022/01/29 09:21:08;;;;;;;2.60;1.50;;;4.50;75.30;;;;;;4993617;28;20818;-75
2022/01/29 09:23:35;;;;;;;2.60;1.40;;;4.50;75.80;;;;;;4995102;28;20828;-75
2022/01/29 09:26:03;;;;;;;2.50;1.40;;;4.40;75.90;;;;;;4998126;28;20457;-75
2022/01/29 09:28:29;;;;;;;2.70;1.73;;;4.50;75.40;;;;;;4998097;28;20507;-74
2022/01/29 09:30:56;;;;;;;3.23;1.87;;;4.50;74.90;;;;;;4997923;28;20465;-73
2022/01/29 09:33:23;;;;;;;3.20;1.70;;;4.60;75.70;;;;;;4997938;28;20445;-74
2022/01/29 09:35:49;;;;;;;2.57;1.50;;;5.10;77.10;;;;;;4997827;28;20804;-74
2022/01/29 09:38:16;;;;;;;2.50;1.37;;;5.40;74.80;;;;;;4997952;28;20495;-68
2022/01/29 09:40:44;;;;;;;2.73;1.37;;;5.60;74.70;;;;;;4997837;28;20473;-68
2022/01/29 09:43:12;;;;;;;2.60;1.60;;;6.00;74.10;;;;;;4997743;28;20507;-68
2022/01/29 09:45:39;;;;;;;2.60;1.30;;;6.20;72.60;;;;;;4997754;28;20457;-73
2022/01/29 09:48:06;;;;;;;2.60;1.50;;;6.30;71.10;;;;;;4997747;28;20444;-73
2022/01/29 09:50:35;;;;;;;2.50;1.50;;;6.40;71.00;;;;;;4997314;28;20944;-73
2022/01/29 09:53:04;;;;;;;2.50;1.33;;;6.30;71.10;;;;;;4997611;28;20465;-72
2022/01/29 09:55:30;;;;;;;2.67;1.57;;;6.40;71.60;;;;;;4997502;28;20531;-72
2022/01/29 09:57:58;;;;;;;2.40;1.30;;;6.40;71.40;;;;;;4997250;28;20449;-72
2022/01/29 10:00:27;;;;;;;2.70;1.53;;;6.30;72.10;;;;;;4997371;28;20503;-73
2022/01/29 10:03:19;;;;;;;2.67;1.40;;;6.30;72.10;;;;;;4997288;28;20527;-73
2022/01/29 10:05:48;;;;;;;3.20;1.80;;;6.30;72.60;;;;;;4997319;28;20426;-73
2022/01/29 10:08:15;;;;;;;2.50;1.37;;;6.20;72.90;;;;;;4997873;28;20449;-75
2022/01/29 10:10:44;;;;;;;2.50;1.33;;;6.00;73.60;;;;;;4997308;28;20476;-74
2022/01/29 10:13:31;;;;;;;2.40;1.20;;;6.10;73.70;;;;;;4996898;28;20870;-74
2022/01/29 10:16:08;;;;;;;2.57;1.23;;;6.40;74.50;;;;;;5116602;23;20464;-73
2022/01/29 10:18:36;;;;;;;2.40;1.20;;;6.50;73.70;;;;;;4997359;28;20452;-73
2022/01/29 10:21:17;;;;;;;2.60;1.57;;;6.60;73.20;;;;;;4997411;28;20457;-73
2022/01/29 10:23:46;;;;;;;2.80;1.57;;;6.40;74.30;;;;;;4997272;28;20473;-71
2022/01/29 10:26:27;;;;;;;2.60;1.30;;;6.50;73.90;;;;;;4998996;28;20870;-71
2022/01/29 10:28:54;;;;;;;2.50;1.50;;;6.90;74.30;;;;;;4998353;28;20429;-74
2022/01/29 10:31:23;;;;;;;2.40;1.30;;;7.10;73.10;;;;;;4997233;28;20463;-77
2022/01/29 10:33:50;;;;;;;2.60;1.30;;;7.10;71.90;;;;;;4996575;28;20453;-76
2022/01/29 10:36:19;;;;;;;3.07;1.60;;;7.30;72.00;;;;;;4995312;28;20523;-75
2022/01/29 10:38:49;;;;;;;2.73;1.67;;;7.30;71.80;;;;;;4997950;28;20457;-77
2022/01/29 10:41:25;;;;;;;2.30;1.30;;;7.40;71.60;;;;;;4998968;28;20457;-73
2022/01/29 10:43:57;;;;;;;2.63;1.47;;;7.20;71.70;;;;;;4997964;28;20519;-74
2022/01/29 10:46:30;;;;;;;2.40;1.27;;;7.20;72.00;;;;;;4996457;28;20472;-73
2022/01/29 10:48:58;;;;;;;2.47;1.30;;;7.10;72.80;;;;;;4996627;28;20457;-73
2022/01/29 10:51:25;;;;;;;2.80;1.40;;;7.30;73.30;;;;;;4995986;28;20451;-73
2022/01/29 10:53:53;;;;;;;2.30;1.10;;;7.20;72.60;;;;;;4995886;28;20571;-73
2022/01/29 10:56:20;;;;;;;2.30;1.03;;;7.30;73.50;;;;;;4995694;28;20474;-73
2022/01/29 10:58:50;;;;;;;2.30;1.00;;;7.40;74.30;;;;;;4995859;28;20461;-74
2022/01/29 11:01:18;;;;;;;2.30;0.90;;;7.50;74.20;;;;;;4995975;28;20456;-74
2022/01/29 11:03:47;;;;;;;2.20;0.90;;;7.80;74.20;;;;;;4995716;28;20484;-72
2022/01/29 11:06:19;;;;;;;2.40;1.10;;;8.10;75.40;;;;;;4995705;28;20469;-74
2022/01/29 11:08:46;;;;;;;2.50;1.10;;;8.20;74.90;;;;;;4995532;28;20438;-75
2022/01/29 11:11:14;;;;;;;2.67;1.33;;;8.20;74.10;;;;;;4995552;28;20535;-75
2022/01/29 11:13:43;;;;;;;2.50;1.10;;;8.40;75.60;;;;;;4995452;28;20955;-75
2022/01/29 11:16:11;;;;;;;2.40;1.10;;;8.40;71.70;;;;;;4995589;28;20489;-76
2022/01/29 11:18:38;;;;;;;2.37;1.00;;;8.30;73.20;;;;;;4995768;28;20449;-75
2022/01/29 11:21:06;;;;;;;2.20;0.80;;;8.30;72.60;;;;;;4995850;28;20449;-75
2022/01/29 11:23:34;;;;;;;3.37;0.80;;;8.40;72.30;;;;;;4995751;28;20449;-75
2022/01/29 11:26:01;;;;;;;2.30;1.00;;;8.30;73.00;;;;;;4995297;28;20885;-75
2022/01/29 11:28:29;;;;;;;2.33;0.97;;;8.20;73.30;;;;;;4995548;28;20449;-75
2022/01/29 11:31:20;;;;;;;2.20;0.90;;;8.20;72.90;;;;;;4996286;28;20943;-74
2022/01/29 11:34:24;;;;;;;2.20;0.97;;;8.20;72.90;;;;;;4995675;28;20453;-75
2022/01/29 11:37:06;;;;;;;2.37;0.93;;;8.10;73.20;;;;;;4995575;28;20476;-73
2022/01/29 11:39:36;;;;;;;2.33;1.07;;;8.00;73.50;;;;;;4996434;28;20437;-74
2022/01/29 11:42:31;;;;;;;2.10;0.70;;;7.80;73.80;;;;;;4995379;28;20485;-74
2022/01/29 11:44:58;;;;;;;2.17;0.80;;;7.60;74.60;;;;;;4994933;28;20481;-75
2022/01/29 11:47:48;;;;;;;2.20;1.00;;;7.60;75.80;;;;;;4994801;28;20476;-76
2022/01/29 11:50:44;;;;;;;2.17;0.90;;;7.80;76.00;;;;;;4995619;28;20472;-74
2022/01/29 11:53:14;;;;;;;2.43;1.00;;;7.70;76.70;;;;;;4995556;28;20488;-74
2022/01/29 11:55:44;;;;;;;2.20;0.90;;;7.30;75.10;;;;;;4999588;28;20446;-74
2022/01/29 11:58:21;;;;;;;2.20;0.87;;;7.20;76.10;;;;;;5008069;28;20449;-73
2022/01/29 12:00:51;;;;;;;2.10;0.80;;;7.30;76.40;;;;;;5008844;28;20448;-73
2022/01/29 12:03:55;;;;;;;2.10;0.90;;;7.10;76.30;;;;;;5006349;28;20464;-73
2022/01/29 12:06:25;;;;;;;2.10;0.80;;;6.90;77.20;;;;;;4999197;28;20472;-74
2022/01/29 12:09:21;;;;;;;2.20;0.97;;;7.00;77.10;;;;;;4995941;28;20461;-73
2022/01/29 12:12:22;;;;;;;2.30;0.97;;;7.00;77.80;;;;;;4994996;28;20457;-73
2022/01/29 12:14:51;;;;;;;2.37;0.97;;;7.00;76.90;;;;;;4995068;28;20437;-74
2022/01/29 12:17:37;;;;;;;2.30;1.10;;;6.90;77.60;;;;;;4994680;28;20488;-74
2022/01/29 12:20:07;;;;;;;2.37;0.93;;;7.00;77.60;;;;;;4994756;28;20458;-74
2022/01/29 12:22:36;;;;;;;2.40;1.00;;;7.30;77.00;;;;;;4994754;28;20444;-74
2022/01/29 12:25:06;;;;;;;2.33;1.00;;;7.50;76.80;;;;;;4996721;28;20487;-74
2022/01/29 12:27:45;;;;;;;2.20;0.90;;;7.30;76.30;;;;;;4995123;28;20511;-74
2022/01/29 12:30:13;;;;;;;2.10;0.80;;;7.20;76.60;;;;;;4994924;28;20445;-73
2022/01/29 12:32:40;;;;;;;2.20;0.90;;;7.10;77.50;;;;;;4995106;28;20453;-74
2022/01/29 12:35:07;;;;;;;2.20;0.70;;;7.00;78.50;;;;;;4994583;28;20511;-74
2022/01/29 12:37:34;;;;;;;2.10;0.70;;;7.00;78.90;;;;;;4994170;28;20473;-74
2022/01/29 12:40:18;;;;;;;2.30;0.90;;;7.20;79.00;;;;;;4994455;28;20791;-74
2022/01/29 12:42:54;;;;;;;2.20;0.87;;;7.20;78.60;;;;;;4994419;28;20473;-74
2022/01/29 12:45:22;;;;;;;2.30;0.93;;;7.10;78.80;;;;;;4993898;28;20479;-74
2022/01/29 12:47:49;;;;;;;2.20;0.80;;;6.90;79.80;;;;;;4994123;28;20472;-73
2022/01/29 12:50:21;;;;;;;2.30;0.90;;;7.00;80.30;;;;;;4994167;28;20503;-74
2022/01/29 12:52:48;;;;;;;2.20;0.83;;;6.90;79.70;;;;;;4994351;28;20540;-74
2022/01/29 12:55:16;;;;;;;2.30;0.97;;;7.00;79.80;;;;;;4994125;28;20487;-74
2022/01/29 12:57:49;;;;;;;2.30;1.10;;;6.80;79.60;;;;;;4994302;28;20461;-74
2022/01/29 13:00:18;;;;;;;2.20;0.80;;;6.70;80.00;;;;;;4994093;28;20437;-74
2022/01/29 13:02:45;;;;;;;2.30;0.90;;;6.60;80.90;;;;;;4993902;28;20523;-74
2022/01/29 13:05:13;;;;;;;2.60;1.10;;;6.50;81.10;;;;;;4993559;28;20559;-74
2022/01/29 13:07:40;;;;;;;2.20;0.90;;;6.40;81.70;;;;;;4993832;28;20539;-74
2022/01/29 13:10:08;;;;;;;2.30;0.90;;;6.30;81.30;;;;;;4994050;28;20449;-74
2022/01/29 13:12:40;;;;;;;2.20;0.87;;;6.40;81.80;;;;;;4993570;28;20449;-74
2022/01/29 13:15:10;;;;;;;2.30;0.90;;;6.50;80.90;;;;;;4994311;28;20504;-74
2022/01/29 13:17:39;;;;;;;2.20;1.03;;;6.30;80.80;;;;;;4993871;28;20842;-74
2022/01/29 13:20:07;;;;;;;2.00;0.80;;;6.10;81.60;;;;;;4993029;28;20940;-74
2022/01/29 13:22:34;;;;;;;2.20;0.87;;;6.10;82.50;;;;;;4993506;28;20512;-74
2022/01/29 13:25:02;;;;;;;2.20;0.87;;;6.30;82.00;;;;;;4993803;28;20507;-74
2022/01/29 13:27:33;;;;;;;2.10;0.70;;;6.30;81.40;;;;;;4993167;28;20512;-74
2022/01/29 13:30:12;;;;;;;2.30;1.20;;;6.10;82.00;;;;;;4993538;28;20991;-74
2022/01/29 13:32:40;;;;;;;2.10;0.80;;;6.20;82.10;;;;;;4993872;28;20452;-74
2022/01/29 13:35:18;;;;;;;2.20;0.90;;;6.30;82.20;;;;;;4993196;28;20965;-74
2022/01/29 13:37:44;;;;;;;2.20;0.90;;;6.40;81.60;;;;;;4993658;28;20484;-74
2022/01/29 13:40:18;;;;;;;2.20;0.90;;;6.40;81.30;;;;;;4993512;28;20465;-74
2022/01/29 13:42:54;;;;;;;2.07;0.80;;;6.50;81.30;;;;;;4993361;28;20500;-74
2022/01/29 13:45:23;;;;;;;2.20;0.97;;;6.50;81.40;;;;;;4993668;28;20465;-74
2022/01/29 13:48:02;;;;;;;2.10;0.70;;;6.60;80.70;;;;;;4993389;28;20535;-74
2022/01/29 13:50:31;;;;;;;2.20;0.93;;;6.50;81.30;;;;;;4993690;28;20437;-74
2022/01/29 13:53:09;;;;;;;2.17;0.80;;;6.50;80.80;;;;;;4993827;28;20464;-75
2022/01/29 13:55:37;;;;;;;2.30;0.90;;;6.60;80.80;;;;;;4992929;28;20429;-75
2022/01/29 13:58:08;;;;;;;2.20;0.80;;;6.50;80.80;;;;;;4993245;28;20448;-75
2022/01/29 14:00:57;;;;;;;2.17;0.90;;;6.60;80.90;;;;;;4993032;28;20452;-75
2022/01/29 14:03:57;;;;;;;2.00;0.70;;;6.70;80.60;;;;;;4993115;28;20455;-75
2022/01/29 14:06:30;;;;;;;2.20;0.80;;;6.50;80.50;;;;;;4932756;29;20492;-74
2022/01/29 14:09:27;;;;;;;2.40;1.00;;;6.60;81.30;;;;;;4933589;29;20522;-74
2022/01/29 14:12:12;;;;;;;2.30;0.90;;;6.70;80.50;;;;;;4978253;28;20445;-72
2022/01/29 14:14:41;;;;;;;2.33;0.90;;;6.70;80.60;;;;;;4997016;28;20433;-73
2022/01/29 14:17:11;;;;;;;2.27;0.83;;;6.80;80.20;;;;;;4996874;28;20477;-74
2022/01/29 14:19:39;;;;;;;2.10;0.70;;;6.80;80.30;;;;;;4996958;28;20504;-74
2022/01/29 14:22:07;;;;;;;2.50;1.00;;;6.80;80.30;;;;;;4996438;28;20531;-74
2022/01/29 14:24:35;;;;;;;2.20;0.80;;;6.60;80.50;;;;;;4996226;28;20532;-73
2022/01/29 14:27:02;;;;;;;2.10;0.80;;;6.50;80.90;;;;;;4996015;28;20980;-72
2022/01/29 14:29:30;;;;;;;2.20;0.90;;;6.40;81.80;;;;;;4996237;28;20500;-74
2022/01/29 14:31:57;;;;;;;2.33;0.90;;;6.40;81.80;;;;;;4996291;28;20453;-74
2022/01/29 14:34:25;;;;;;;2.07;0.80;;;6.40;81.80;;;;;;4996433;28;20477;-73
2022/01/29 14:36:54;;;;;;;3.33;1.00;;;6.40;82.30;;;;;;4996166;28;20496;-74
2022/01/29 14:39:24;;;;;;;2.20;0.93;;;6.50;81.80;;;;;;4996293;28;20456;-72
2022/01/29 14:41:51;;;;;;;2.30;1.00;;;6.60;81.10;;;;;;4996008;28;20445;-72
2022/01/29 14:44:18;;;;;;;2.30;1.00;;;6.30;82.10;;;;;;4995887;28;20875;-72
2022/01/29 14:46:45;;;;;;;2.27;0.97;;;6.20;82.40;;;;;;4996327;28;20504;-74
2022/01/29 14:49:12;;;;;;;2.30;1.00;;;6.30;82.50;;;;;;4995998;28;20453;-72
2022/01/29 14:51:43;;;;;;;2.27;1.00;;;6.20;82.70;;;;;;4996330;28;20457;-73
2022/01/29 14:54:11;;;;;;;2.20;0.80;;;6.30;82.60;;;;;;4996140;28;20437;-74
2022/01/29 14:56:38;;;;;;;2.20;0.90;;;6.30;82.40;;;;;;4995824;28;20570;-75
2022/01/29 14:59:05;;;;;;;2.20;0.90;;;6.20;82.70;;;;;;4995728;28;20449;-73
2022/01/29 15:01:32;;;;;;;2.47;0.80;;;6.10;83.10;;;;;;4996201;28;20454;-74
2022/01/29 15:03:59;;;;;;;2.10;0.80;;;6.20;82.80;;;;;;4996042;28;20456;-74
2022/01/29 15:06:27;;;;;;;2.33;0.90;;;6.20;82.80;;;;;;4995312;28;20865;-74
2022/01/29 15:08:55;;;;;;;2.50;1.00;;;6.20;82.90;;;;;;4995883;28;20461;-75
2022/01/29 15:11:24;;;;;;;2.10;0.80;;;6.30;83.10;;;;;;4995639;28;20453;-75
2022/01/29 15:13:51;;;;;;;2.20;0.90;;;6.50;82.30;;;;;;4995547;28;20524;-75
2022/01/29 15:16:19;;;;;;;2.10;0.90;;;6.50;81.90;;;;;;4995316;28;20477;-75
2022/01/29 15:18:46;;;;;;;2.47;0.93;;;6.50;82.40;;;;;;4995500;28;20445;-74
2022/01/29 15:21:13;;;;;;;2.17;0.87;;;6.50;81.90;;;;;;4995286;28;20456;-74
2022/01/29 15:23:40;;;;;;;2.13;0.80;;;6.40;82.30;;;;;;4995397;28;20503;-74
2022/01/29 15:26:09;;;;;;;2.20;0.90;;;6.50;81.90;;;;;;4994864;28;21030;-75
2022/01/29 15:28:36;;;;;;;2.23;0.97;;;6.60;81.90;;;;;;4995189;28;20449;-74
2022/01/29 15:31:03;;;;;;;2.50;1.23;;;6.60;81.40;;;;;;4995193;28;20500;-74
2022/01/29 15:33:31;;;;;;;2.10;0.80;;;6.70;81.60;;;;;;4994848;28;20941;-73
2022/01/29 15:35:59;;;;;;;2.10;0.90;;;6.60;81.30;;;;;;4994967;28;20457;-75
2022/01/29 15:38:27;;;;;;;2.40;1.00;;;6.70;81.50;;;;;;4994953;28;20851;-74
2022/01/29 15:40:56;;;;;;;2.47;1.00;;;6.70;81.00;;;;;;4994657;28;20516;-74
2022/01/29 15:43:25;;;;;;;2.20;0.80;;;6.70;81.30;;;;;;4995067;28;20956;-74
2022/01/29 15:45:52;;;;;;;2.37;0.97;;;6.80;81.30;;;;;;4994779;28;20480;-75
2022/01/29 15:48:19;;;;;;;2.10;0.90;;;6.70;80.90;;;;;;4995218;28;20460;-74
2022/01/29 15:50:46;;;;;;;2.20;1.00;;;6.60;81.10;;;;;;4994722;28;20529;-75
2022/01/29 15:53:12;;;;;;;2.30;1.00;;;6.40;81.80;;;;;;4994830;28;20457;-74
2022/01/29 15:55:41;;;;;;;2.00;0.70;;;6.40;82.20;;;;;;4995346;28;20461;-75
2022/01/29 15:58:14;;;;;;;2.40;1.10;;;6.40;82.00;;;;;;4994538;28;21010;-75
2022/01/29 16:00:42;;;;;;;2.40;1.20;;;6.30;82.40;;;;;;4994818;28;20961;-74
2022/01/29 16:03:09;;;;;;;2.23;0.90;;;6.30;82.50;;;;;;4994680;28;20457;-74
2022/01/29 16:05:37;;;;;;;2.20;1.00;;;6.30;82.40;;;;;;4993796;28;21042;-75
2022/01/29 16:08:04;;;;;;;2.17;0.93;;;6.50;82.50;;;;;;4994561;28;20507;-72
2022/01/29 16:10:31;;;;;;;2.27;0.93;;;6.60;81.60;;;;;;4994246;28;20452;-74
2022/01/29 16:12:58;;;;;;;2.67;0.97;;;6.30;82.30;;;;;;4994220;28;20460;-75
2022/01/29 16:15:24;;;;;;;2.30;0.90;;;6.20;83.10;;;;;;4994262;28;20511;-74
2022/01/29 16:17:53;;;;;;;2.20;0.90;;;6.20;82.90;;;;;;5115243;23;20563;-74
2022/01/29 16:20:20;;;;;;;2.40;1.07;;;6.30;83.10;;;;;;4994944;28;20464;-74
2022/01/29 16:22:47;;;;;;;2.40;1.00;;;6.20;82.70;;;;;;4994847;28;20449;-74
2022/01/29 16:25:14;;;;;;;2.30;1.13;;;6.00;83.60;;;;;;4994728;28;20448;-74
2022/01/29 16:27:41;;;;;;;2.40;1.00;;;6.00;83.80;;;;;;4995107;28;20473;-74
2022/01/29 16:30:09;;;;;;;2.50;0.90;;;6.10;83.40;;;;;;4999285;28;20980;-74
2022/01/29 16:32:37;;;;;;;2.20;0.90;;;6.10;83.60;;;;;;4999310;28;20453;-74
2022/01/29 16:35:06;;;;;;;2.37;1.00;;;6.00;83.70;;;;;;5001021;28;20460;-74
2022/01/29 16:37:33;;;;;;;2.20;0.90;;;5.80;84.40;;;;;;5002432;28;20475;-75
2022/01/29 16:39:59;;;;;;;2.27;0.90;;;5.70;84.80;;;;;;5003737;28;20452;-74
2022/01/29 16:42:27;;;;;;;2.20;0.80;;;5.70;84.90;;;;;;5001719;28;20937;-74
2022/01/29 16:44:54;;;;;;;2.60;1.10;;;5.80;85.00;;;;;;5000533;28;20453;-74
2022/01/29 16:47:21;;;;;;;2.40;0.90;;;5.80;85.10;;;;;;5002142;28;20495;-74
2022/01/29 16:49:49;;;;;;;2.23;0.80;;;5.90;84.50;;;;;;5001813;28;20445;-74
2022/01/29 16:52:17;;;;;;;2.30;1.10;;;5.90;84.80;;;;;;5001584;28;20449;-72
2022/01/29 16:54:45;;;;;;;2.17;0.97;;;5.80;85.10;;;;;;5002008;28;20516;-74
2022/01/29 16:57:12;;;;;;;2.20;0.90;;;5.90;85.40;;;;;;5000906;28;20465;-74
2022/01/29 16:59:39;;;;;;;2.10;0.80;;;6.10;85.00;;;;;;4994361;28;20460;-75
2022/01/29 17:02:06;;;;;;;2.17;0.80;;;6.20;84.30;;;;;;4994217;28;20445;-75
2022/01/29 17:04:32;;;;;;;2.20;1.00;;;6.30;84.20;;;;;;4994259;28;20449;-75
2022/01/29 17:07:00;;;;;;;2.30;1.00;;;6.30;83.70;;;;;;4994123;28;20488;-73
2022/01/29 17:09:28;;;;;;;2.20;1.00;;;6.20;84.10;;;;;;4994206;28;20457;-73
2022/01/29 17:11:56;;;;;;;2.10;0.80;;;6.30;84.40;;;;;;4994103;28;20448;-74
2022/01/29 17:14:22;;;;;;;2.10;0.70;;;6.40;84.00;;;;;;4994293;28;20453;-74
2022/01/29 17:16:49;;;;;;;2.10;0.70;;;6.60;83.50;;;;;;4993902;28;20531;-74
2022/01/29 17:19:16;;;;;;;2.00;0.70;;;6.70;83.10;;;;;;4994282;28;20450;-74